Open Full Screen Window  High Contrast Mode
Wind Gusting 00 knots
03
November 26, 2014 2:29 AM EST
Weather Information
Wind Direction
  040 °
Wind Speed
  03 kt (3 mph)
Wind Gust
  00 kt (0 mph)
Altimeter
30.15 in
Visibility
10 SM
Temperature
00° C
32° F
Dewpoint
-01° C
30° F
Humidity
93%
1hr Rain Fall
00.00 in.
24hr Rain Fall
00.00 in.
Sky Condition
Clear
VFR

METAR KI69 260729Z AUTO 04003KT 10SM CLR 00/M01 A3015 RMK AO1

*Background is not an actual portrayal of the airport.